Time;durP1;ratioP1;P1;durP2;ratioP2;P2;SDS_P1;SDS_P2;PMS_P1;PMS_P2;Temp;Humidity;BMP_temperature;BMP_pressure;BME280_temperature;BME280_humidity;BME280_pressure;Samples;Min_cycle;Max_cycle;Signal;HPM_P1;HPM_P2
2023/09/10 00:01:43;;;;;;;6.22;4.72;;;15.20;85.50;;;;;;5139388;28;20203;-60
2023/09/10 00:04:17;;;;;;;6.13;5.03;;;15.10;99.90;;;;;;5143379;28;20323;-60
2023/09/10 00:06:53;;;;;;;5.80;4.63;;;15.00;99.90;;;;;;5158840;28;20038;-60
2023/09/10 00:09:24;;;;;;;5.40;4.63;;;15.00;99.90;;;;;;5142555;28;20031;-60
2023/09/10 00:11:56;;;;;;;5.55;4.28;;;15.00;99.90;;;;;;5143606;28;20035;-60
2023/09/10 00:14:29;;;;;;;11.18;3.88;;;14.90;99.90;;;;;;5143456;28;20057;-61
2023/09/10 00:17:00;;;;;;;6.97;4.68;;;14.90;99.90;;;;;;5142280;28;20057;-60
2023/09/10 00:19:34;;;;;;;5.60;4.25;;;14.80;99.90;;;;;;5159084;28;20053;-60
2023/09/10 00:22:11;;;;;;;6.53;4.72;;;14.80;99.90;;;;;;5143240;28;20045;-60
2023/09/10 00:24:42;;;;;;;5.30;4.30;;;14.70;99.90;;;;;;5127148;28;20314;-61
2023/09/10 00:27:15;;;;;;;4.75;3.80;;;14.70;99.90;;;;;;5159598;28;20026;-60
2023/09/10 00:29:46;;;;;;;5.93;4.45;;;14.60;99.90;;;;;;5158967;28;20188;-60
2023/09/10 00:32:17;;;;;;;6.68;4.80;;;14.60;99.90;;;;;;5160125;28;20031;-59
2023/09/10 00:34:49;;;;;;;6.03;4.57;;;14.60;99.90;;;;;;5142247;28;20197;-60
2023/09/10 00:37:20;;;;;;;6.18;4.57;;;14.60;99.90;;;;;;5142218;28;20189;-60
2023/09/10 00:39:52;;;;;;;5.30;4.38;;;14.50;99.90;;;;;;5143132;28;20216;-61
2023/09/10 00:42:23;;;;;;;5.30;4.22;;;14.50;99.90;;;;;;5158197;28;20031;-60
2023/09/10 00:44:54;;;;;;;6.43;5.10;;;14.50;99.90;;;;;;5159299;28;20023;-61
2023/09/10 00:47:28;;;;;;;5.22;4.60;;;14.50;99.90;;;;;;5142729;28;20045;-61
2023/09/10 00:50:00;;;;;;;4.90;4.22;;;14.40;99.90;;;;;;5141929;28;20049;-61
2023/09/10 00:52:32;;;;;;;6.25;4.68;;;14.50;99.90;;;;;;5127336;28;20037;-61
2023/09/10 00:55:04;;;;;;;6.25;4.78;;;14.50;99.90;;;;;;5141034;28;20046;-62
2023/09/10 00:57:37;;;;;;;6.85;4.97;;;14.50;99.90;;;;;;5158019;28;20037;-61
2023/09/10 01:00:09;;;;;;;6.72;4.40;;;14.50;99.90;;;;;;5139804;28;20039;-60
2023/09/10 01:02:43;;;;;;;6.50;4.70;;;14.50;99.90;;;;;;5222090;22;20049;-94
2023/09/10 01:05:16;;;;;;;;;;;14.40;99.90;;;;;;5207707;28;20025;-95
2023/09/10 01:07:50;;;;;;;6.57;5.28;;;14.40;99.90;;;;;;5207457;28;19907;-93
2023/09/10 01:10:29;;;;;;;6.43;4.95;;;14.40;99.90;;;;;;5206699;28;20029;-93
2023/09/10 01:13:20;;;;;;;7.28;4.70;;;14.40;99.90;;;;;;5207203;28;20037;-94
2023/09/10 01:16:00;;;;;;;4.43;4.00;;;14.30;99.90;;;;;;5207932;28;20032;-93
2023/09/10 01:18:50;;;;;;;6.22;5.10;;;14.30;99.90;;;;;;5211891;28;20033;-93
2023/09/10 01:21:41;;;;;;;6.38;5.32;;;14.30;99.90;;;;;;5209203;28;20025;-94
2023/09/10 01:24:18;;;;;;;11.90;4.40;;;14.30;99.90;;;;;;5207293;28;20031;-92
2023/09/10 01:26:59;;;;;;;6.72;4.60;;;14.20;99.90;;;;;;5206201;28;20035;-91
2023/09/10 01:29:30;;;;;;;6.68;5.07;;;14.20;99.90;;;;;;5206405;28;20033;-93
2023/09/10 01:32:05;;;;;;;6.30;4.97;;;14.10;99.90;;;;;;5190668;28;20037;-93
2023/09/10 01:34:51;;;;;;;7.22;5.40;;;14.20;99.90;;;;;;5207117;28;20035;-93
2023/09/10 01:37:32;;;;;;;6.70;5.50;;;14.20;99.90;;;;;;5206810;28;20033;-93
2023/09/10 01:40:09;;;;;;;5.80;4.63;;;14.10;99.90;;;;;;5209597;22;20053;-62
2023/09/10 01:42:42;;;;;;;7.78;5.30;;;14.10;99.90;;;;;;5220402;28;20345;-62
2023/09/10 01:45:15;;;;;;;7.13;5.38;;;14.10;99.90;;;;;;5202325;28;20314;-63
2023/09/10 01:47:46;;;;;;;5.85;5.22;;;14.10;99.90;;;;;;5185241;28;20058;-62
2023/09/10 01:50:24;;;;;;;5.88;4.65;;;14.10;99.90;;;;;;5201956;28;20391;-63
2023/09/10 01:53:00;;;;;;;6.70;4.90;;;14.10;99.90;;;;;;5223118;28;20032;-63
2023/09/10 01:55:32;;;;;;;6.63;5.15;;;14.10;99.90;;;;;;5209269;28;20310;-62
2023/09/10 01:58:03;;;;;;;7.75;5.07;;;14.00;99.90;;;;;;5190532;28;20039;-64
2023/09/10 02:00:37;;;;;;;8.90;4.95;;;14.00;99.90;;;;;;5192905;28;20041;-63
2023/09/10 02:03:13;;;;;;;7.68;5.70;;;14.10;99.90;;;;;;5190135;28;20017;-63
2023/09/10 02:05:47;;;;;;;6.70;5.20;;;14.00;99.90;;;;;;5219740;28;20039;-62
2023/09/10 02:08:20;;;;;;;13.00;5.47;;;14.00;99.90;;;;;;5214074;28;20029;-62
2023/09/10 02:10:56;;;;;;;7.20;5.00;;;14.10;99.90;;;;;;5177233;28;20032;-63
2023/09/10 02:13:30;;;;;;;8.10;5.45;;;14.10;99.90;;;;;;5162976;28;20034;-64
2023/09/10 02:16:07;;;;;;;5.55;4.90;;;14.00;99.90;;;;;;5161212;28;20030;-63
2023/09/10 02:18:41;;;;;;;7.32;5.20;;;14.00;99.90;;;;;;5179389;28;20044;-64
2023/09/10 02:21:13;;;;;;;6.05;5.18;;;14.00;99.90;;;;;;5178181;28;20156;-62
2023/09/10 02:23:44;;;;;;;6.57;4.90;;;14.00;99.90;;;;;;5179162;28;20044;-63
2023/09/10 02:26:17;;;;;;;9.82;5.95;;;14.00;99.90;;;;;;5178448;28;20033;-62
2023/09/10 02:28:52;;;;;;;6.40;5.43;;;14.00;99.90;;;;;;5186845;28;20325;-60
2023/09/10 02:31:24;;;;;;;;;;;14.00;99.90;;;;;;5194387;28;20521;-65
2023/09/10 02:34:01;;;;;;;6.28;4.85;;;14.00;99.90;;;;;;5177443;28;20307;-62
2023/09/10 02:36:32;;;;;;;7.60;5.25;;;13.90;99.90;;;;;;5189453;28;20010;-63
2023/09/10 02:39:03;;;;;;;5.60;4.70;;;13.90;99.90;;;;;;5188312;28;20527;-63
2023/09/10 02:41:34;;;;;;;6.60;5.20;;;13.90;99.90;;;;;;5201910;28;20036;-63
2023/09/10 02:44:05;;;;;;;7.78;5.30;;;13.90;99.90;;;;;;5211192;28;20025;-64
2023/09/10 02:46:39;;;;;;;5.97;5.07;;;13.90;99.90;;;;;;5180401;28;20017;-62
2023/09/10 02:49:12;;;;;;;8.73;5.60;;;13.90;99.90;;;;;;5198109;28;20037;-63
2023/09/10 02:51:43;;;;;;;8.13;5.65;;;13.90;99.90;;;;;;5211580;28;20033;-63
2023/09/10 02:54:16;;;;;;;6.80;5.32;;;13.80;99.90;;;;;;5189598;28;20029;-63
2023/09/10 02:56:50;;;;;;;5.95;4.78;;;13.80;99.90;;;;;;5171747;28;20037;-62
2023/09/10 02:59:25;;;;;;;6.63;5.17;;;13.80;99.90;;;;;;5144790;28;20049;-63
2023/09/10 03:01:56;;;;;;;7.60;5.43;;;13.80;99.90;;;;;;5164373;28;20037;-61
2023/09/10 03:04:28;;;;;;;6.70;5.50;;;13.80;99.90;;;;;;5198763;28;20043;-64
2023/09/10 03:07:01;;;;;;;8.32;6.25;;;13.80;99.90;;;;;;5198341;28;20033;-63
2023/09/10 03:09:35;;;;;;;7.63;5.88;;;13.80;99.90;;;;;;5181125;28;20034;-63
2023/09/10 03:12:23;;;;;;;7.18;6.38;;;13.80;99.90;;;;;;5199226;28;20029;-65
2023/09/10 03:14:54;;;;;;;9.90;5.95;;;13.80;99.90;;;;;;5182122;28;20022;-62
2023/09/10 03:17:25;;;;;;;10.13;6.00;;;13.70;99.90;;;;;;5196285;28;20030;-66
2023/09/10 03:19:57;;;;;;;6.60;5.43;;;13.70;99.90;;;;;;5202868;28;20033;-64
2023/09/10 03:22:28;;;;;;;8.32;5.53;;;13.70;99.90;;;;;;5198387;28;20037;-61
2023/09/10 03:24:59;;;;;;;9.05;6.78;;;13.60;99.90;;;;;;5201264;28;20047;-63
2023/09/10 03:27:30;;;;;;;10.90;5.47;;;13.60;99.90;;;;;;5184703;28;20039;-61
2023/09/10 03:30:05;;;;;;;9.93;6.70;;;13.50;99.90;;;;;;5169597;28;20029;-65
2023/09/10 03:32:36;;;;;;;8.52;6.55;;;13.50;99.90;;;;;;5182954;28;20034;-64
2023/09/10 03:35:11;;;;;;;7.03;5.35;;;13.50;99.90;;;;;;5187986;28;20049;-65
2023/09/10 03:37:42;;;;;;;7.70;5.45;;;13.50;99.90;;;;;;5184549;28;20033;-63
2023/09/10 03:40:14;;;;;;;7.68;6.30;;;13.50;99.90;;;;;;5203537;28;20097;-63
2023/09/10 03:42:48;;;;;;;8.10;7.20;;;13.50;99.90;;;;;;5168423;28;20036;-64
2023/09/10 03:45:22;;;;;;;9.75;6.70;;;13.50;99.90;;;;;;5181537;28;20037;-64
2023/09/10 03:47:54;;;;;;;9.10;6.70;;;13.50;99.90;;;;;;5171559;28;20036;-62
2023/09/10 03:50:26;;;;;;;9.85;6.32;;;13.50;99.90;;;;;;5185469;28;20367;-63
2023/09/10 03:52:59;;;;;;;7.28;5.78;;;13.40;99.90;;;;;;5185554;28;20483;-62
2023/09/10 03:55:30;;;;;;;7.65;6.18;;;13.40;99.90;;;;;;5190822;28;20040;-61
2023/09/10 03:58:02;;;;;;;7.60;5.57;;;13.40;99.90;;;;;;5194724;28;20029;-65
2023/09/10 04:00:33;;;;;;;8.50;6.10;;;13.40;99.90;;;;;;5181148;28;20030;-63
2023/09/10 04:03:10;;;;;;;8.73;5.90;;;13.30;99.90;;;;;;5140280;28;20037;-65
2023/09/10 04:05:42;;;;;;;8.15;5.93;;;13.40;99.90;;;;;;5198806;28;20021;-63
2023/09/10 04:08:13;;;;;;;9.32;5.60;;;13.30;99.90;;;;;;5188628;28;20044;-63
2023/09/10 04:10:44;;;;;;;10.02;7.28;;;13.40;99.90;;;;;;5205640;28;20036;-64
2023/09/10 04:13:15;;;;;;;8.68;6.07;;;13.40;99.90;;;;;;5205904;28;20267;-65
2023/09/10 04:15:49;;;;;;;8.52;6.20;;;13.40;99.90;;;;;;5205978;28;20043;-63
2023/09/10 04:18:23;;;;;;;8.60;6.45;;;13.40;99.90;;;;;;5195281;28;20338;-64
2023/09/10 04:20:57;;;;;;;9.15;7.40;;;13.40;99.90;;;;;;5203763;28;20172;-65
2023/09/10 04:23:30;;;;;;;9.43;6.53;;;13.30;99.90;;;;;;5201969;28;20230;-63
2023/09/10 04:26:01;;;;;;;10.50;6.30;;;13.40;99.90;;;;;;5184130;28;20250;-66
2023/09/10 04:28:32;;;;;;;9.23;6.90;;;13.40;99.90;;;;;;5186786;28;20036;-65
2023/09/10 04:31:04;;;;;;;11.80;6.68;;;13.40;99.90;;;;;;5177558;28;20037;-65
2023/09/10 04:33:35;;;;;;;9.27;7.03;;;13.30;99.90;;;;;;5183846;28;20041;-65
2023/09/10 04:36:08;;;;;;;8.95;6.55;;;13.30;99.90;;;;;;5201528;28;20025;-65
2023/09/10 04:38:43;;;;;;;10.55;6.85;;;13.40;99.90;;;;;;5188988;28;20030;-64
2023/09/10 04:41:17;;;;;;;9.82;6.55;;;13.40;99.90;;;;;;5180243;28;20038;-63
2023/09/10 04:43:48;;;;;;;8.55;6.57;;;13.30;99.90;;;;;;5171697;28;20363;-64
2023/09/10 04:46:19;;;;;;;12.05;7.03;;;13.40;99.90;;;;;;5201628;28;20032;-65
2023/09/10 04:48:50;;;;;;;8.05;5.75;;;13.40;99.90;;;;;;5184099;28;20040;-63
2023/09/10 04:51:22;;;;;;;8.88;6.97;;;13.50;99.90;;;;;;5221321;28;20032;-64
2023/09/10 04:53:56;;;;;;;9.93;6.10;;;13.50;99.90;;;;;;5204150;28;20037;-64
2023/09/10 04:56:27;;;;;;;8.27;6.22;;;13.50;99.90;;;;;;5219415;28;20025;-63
2023/09/10 04:59:00;;;;;;;6.78;5.57;;;13.60;99.90;;;;;;5185990;28;20467;-63
2023/09/10 05:01:31;;;;;;;7.43;6.35;;;13.60;99.90;;;;;;5178099;28;20028;-64
2023/09/10 05:04:03;;;;;;;10.00;6.60;;;13.70;99.90;;;;;;5181369;28;20103;-63
2023/09/10 05:06:35;;;;;;;8.52;6.40;;;13.80;99.90;;;;;;5164845;28;20042;-64
2023/09/10 05:09:11;;;;;;;7.55;6.57;;;13.90;99.90;;;;;;5183668;28;20045;-65
2023/09/10 05:11:43;;;;;;;9.07;6.25;;;14.00;99.90;;;;;;5183470;28;20043;-62
2023/09/10 05:14:16;;;;;;;9.63;6.38;;;14.00;99.90;;;;;;5191982;28;20041;-63
2023/09/10 05:16:48;;;;;;;9.32;7.00;;;14.20;99.90;;;;;;5177155;28;20042;-64
2023/09/10 05:19:21;;;;;;;9.32;6.80;;;14.20;99.90;;;;;;5198694;28;20049;-66
2023/09/10 05:21:57;;;;;;;7.80;6.18;;;14.40;99.90;;;;;;5166536;28;20050;-65
2023/09/10 05:24:28;;;;;;;9.02;6.03;;;14.50;99.90;;;;;;5167757;28;20033;-65
2023/09/10 05:27:02;;;;;;;8.48;6.18;;;14.60;99.90;;;;;;5171255;28;20037;-65
2023/09/10 05:29:35;;;;;;;8.15;5.97;;;14.80;99.90;;;;;;5167083;28;20045;-64
2023/09/10 05:32:06;;;;;;;9.63;5.78;;;15.10;99.90;;;;;;5197949;28;20526;-63
2023/09/10 05:34:39;;;;;;;6.05;4.95;;;15.50;99.90;;;;;;5206242;28;20038;-65
2023/09/10 05:37:12;;;;;;;6.28;4.70;;;15.80;99.90;;;;;;5169397;28;20072;-64
2023/09/10 05:39:46;;;;;;;7.47;5.47;;;16.20;41.80;;;;;;5182193;28;20258;-65
2023/09/10 05:42:20;;;;;;;6.22;4.93;;;16.60;1.00;;;;;;5165701;28;20042;-65
2023/09/10 05:44:54;;;;;;;6.03;4.82;;;16.90;1.00;;;;;;5197562;28;20040;-66
2023/09/10 05:47:25;;;;;;;;;;;17.30;1.00;;;;;;5191477;28;20029;-64
2023/09/10 05:49:59;;;;;;;6.20;4.70;;;17.60;1.00;;;;;;5174511;28;19905;-63
2023/09/10 05:52:31;;;;;;;5.15;4.32;;;17.90;1.00;;;;;;5166241;28;20029;-63
2023/09/10 05:55:06;;;;;;;5.07;4.30;;;18.10;1.00;;;;;;5186616;28;20052;-63
2023/09/10 05:57:41;;;;;;;5.78;4.53;;;18.30;1.00;;;;;;5186623;28;20037;-64
2023/09/10 06:00:15;;;;;;;5.20;4.68;;;18.40;1.00;;;;;;5161419;28;20060;-65
2023/09/10 06:02:47;;;;;;;;;;;18.60;1.00;;;;;;5155513;28;20041;-65
2023/09/10 06:05:22;;;;;;;4.95;4.43;;;18.80;1.00;;;;;;5185064;28;19932;-64
2023/09/10 06:07:53;;;;;;;6.95;5.85;;;19.00;1.00;;;;;;5172383;28;20034;-64
2023/09/10 06:10:28;;;;;;;7.30;5.10;;;18.80;1.00;;;;;;5198463;28;20043;-63
2023/09/10 06:13:00;;;;;;;5.88;4.30;;;18.80;1.00;;;;;;5198253;28;20554;-64
2023/09/10 06:15:32;;;;;;;6.82;4.93;;;19.10;1.00;;;;;;5164576;28;20039;-64
2023/09/10 06:18:03;;;;;;;6.55;4.70;;;19.30;1.00;;;;;;5197519;28;20037;-63
2023/09/10 06:20:38;;;;;;;6.32;4.70;;;19.70;1.00;;;;;;5199322;28;20428;-64
2023/09/10 06:23:09;;;;;;;5.57;4.15;;;19.60;1.00;;;;;;5201165;28;20028;-62
2023/09/10 06:25:41;;;;;;;6.18;4.80;;;19.70;1.00;;;;;;5201508;28;20041;-63
2023/09/10 06:28:15;;;;;;;5.80;4.75;;;20.00;1.00;;;;;;5203017;28;20033;-64
2023/09/10 06:30:47;;;;;;;5.95;5.03;;;20.30;99.90;;;;;;5167039;28;20041;-64
2023/09/10 06:33:18;;;;;;;7.35;4.90;;;20.30;99.90;;;;;;5181898;28;20471;-62
2023/09/10 06:35:49;;;;;;;8.25;5.13;;;20.30;1.00;;;;;;5180997;28;20468;-64
2023/09/10 06:38:24;;;;;;;9.55;5.43;;;20.40;1.00;;;;;;5193775;28;20041;-64
2023/09/10 06:40:56;;;;;;;;;;;20.40;1.00;;;;;;5177359;28;20048;-64
2023/09/10 06:43:27;;;;;;;6.93;4.80;;;20.30;1.00;;;;;;5180491;28;20038;-65
2023/09/10 06:46:03;;;;;;;11.38;5.28;;;20.30;1.00;;;;;;5196058;28;20029;-66
2023/09/10 06:48:34;;;;;;;6.53;4.80;;;20.60;99.90;;;;;;5171540;28;20052;-63
2023/09/10 06:51:05;;;;;;;6.63;4.93;;;20.90;99.90;;;;;;5202236;28;20021;-66
2023/09/10 06:53:37;;;;;;;9.02;4.88;;;21.30;1.00;;;;;;5198922;28;20036;-64
2023/09/10 06:56:08;;;;;;;6.05;4.47;;;21.30;1.00;;;;;;5182101;28;20040;-65
2023/09/10 06:58:40;;;;;;;7.53;4.38;;;21.50;1.00;;;;;;5182201;28;20032;-65
2023/09/10 07:01:15;;;;;;;5.85;4.65;;;21.90;1.00;;;;;;5180000;28;20045;-65
2023/09/10 07:03:47;;;;;;;6.93;4.85;;;22.00;99.90;;;;;;5168280;28;20034;-63
2023/09/10 07:06:20;;;;;;;7.20;4.53;;;22.00;99.90;;;;;;5184997;28;20029;-63
2023/09/10 07:08:51;;;;;;;8.30;4.78;;;22.10;99.90;;;;;;5203382;28;20221;-66
2023/09/10 07:11:22;;;;;;;6.22;4.47;;;21.70;99.90;;;;;;5185622;28;20029;-63
2023/09/10 07:13:55;;;;;;;5.80;4.65;;;21.50;99.90;;;;;;5203132;28;20357;-64
2023/09/10 07:16:28;;;;;;;6.55;4.43;;;21.90;99.90;;;;;;5199811;28;20310;-63
2023/09/10 07:19:00;;;;;;;4.85;4.32;;;22.20;99.90;;;;;;5190586;28;20025;-65
2023/09/10 07:21:34;;;;;;;5.80;4.50;;;22.70;99.90;;;;;;5218055;28;20043;-64
2023/09/10 07:24:08;;;;;;;5.95;4.60;;;23.20;99.90;;;;;;5222438;28;20021;-66
2023/09/10 07:26:39;;;;;;;4.97;3.95;;;23.50;99.90;;;;;;5188505;28;20028;-65
2023/09/10 07:29:15;;;;;;;7.07;4.35;;;23.50;99.90;;;;;;5187263;28;20043;-61
2023/09/10 07:31:48;;;;;;;5.60;4.22;;;23.80;99.90;;;;;;5184434;28;20030;-66
2023/09/10 07:34:22;;;;;;;5.57;4.28;;;24.00;99.90;;;;;;5201251;28;20314;-64
2023/09/10 07:36:53;;;;;;;10.50;4.50;;;24.20;99.90;;;;;;5184458;28;20037;-63
2023/09/10 07:39:29;;;;;;;6.57;4.65;;;24.30;99.90;;;;;;5184839;28;20045;-64
2023/09/10 07:42:00;;;;;;;5.38;4.03;;;24.50;1.00;;;;;;5183897;28;20041;-64
2023/09/10 07:44:38;;;;;;;9.23;4.38;;;24.60;99.90;;;;;;5168011;28;20037;-62
2023/09/10 07:47:09;;;;;;;4.75;4.20;;;24.70;1.00;;;;;;5181432;28;20025;-64
2023/09/10 07:49:47;;;;;;;6.32;4.57;;;24.40;1.00;;;;;;5180348;28;20211;-64
2023/09/10 07:52:19;;;;;;;5.40;4.10;;;24.60;1.00;;;;;;5164763;28;20363;-64
2023/09/10 07:54:50;;;;;;;6.63;4.20;;;24.80;58.30;;;;;;5147749;28;20022;-65
2023/09/10 07:57:24;;;;;;;5.63;4.03;;;25.10;1.00;;;;;;5184416;28;20025;-65
2023/09/10 07:59:55;;;;;;;8.15;4.28;;;25.50;1.00;;;;;;5201368;28;20226;-64
2023/09/10 08:02:26;;;;;;;6.60;4.72;;;25.70;1.00;;;;;;5198311;28;20035;-62
2023/09/10 08:04:58;;;;;;;6.07;4.05;;;25.60;1.00;;;;;;5185264;28;20055;-62
2023/09/10 08:07:29;;;;;;;4.82;4.07;;;26.00;1.00;;;;;;5167978;28;20199;-64
2023/09/10 08:10:08;;;;;;;6.07;4.30;;;25.90;1.00;;;;;;5184766;28;20238;-64
2023/09/10 08:12:41;;;;;;;8.40;4.13;;;25.60;99.90;;;;;;5176391;28;20495;-64
2023/09/10 08:15:16;;;;;;;5.88;4.15;;;26.00;99.90;;;;;;5200678;28;20032;-63
2023/09/10 08:17:56;;;;;;;5.35;3.63;;;25.70;99.90;;;;;;5185104;28;20281;-64
2023/09/10 08:20:28;;;;;;;8.20;4.20;;;25.70;99.90;;;;;;5218201;28;20380;-63
2023/09/10 08:22:59;;;;;;;5.38;3.70;;;25.60;1.00;;;;;;5187595;28;20037;-65
2023/09/10 08:25:32;;;;;;;4.60;3.58;;;26.10;1.00;;;;;;5222170;28;20039;-63
2023/09/10 08:28:03;;;;;;;5.53;4.18;;;26.00;1.00;;;;;;5184161;28;20029;-63
2023/09/10 08:30:35;;;;;;;5.13;3.95;;;26.20;1.00;;;;;;5173948;28;20036;-64
2023/09/10 08:33:06;;;;;;;6.55;3.90;;;26.50;1.00;;;;;;5172437;28;20048;-64
2023/09/10 08:35:47;;;;;;;5.05;3.75;;;26.90;1.00;;;;;;5191610;28;20106;-63
2023/09/10 08:38:18;;;;;;;7.63;4.25;;;27.10;1.00;;;;;;5150788;28;20331;-65
2023/09/10 08:41:31;;;;;;;4.60;3.72;;;27.00;1.00;;;;;;5178978;28;20226;-64
2023/09/10 08:44:03;;;;;;;5.55;3.90;;;27.00;1.00;;;;;;5172160;28;20053;-64
2023/09/10 08:46:36;;;;;;;4.00;3.53;;;26.70;99.90;;;;;;5160244;28;20240;-66
2023/09/10 08:49:16;;;;;;;7.10;3.63;;;27.00;99.90;;;;;;5162435;28;20044;-64
2023/09/10 08:51:49;;;;;;;5.47;4.22;;;27.50;99.90;;;;;;5170909;28;20358;-64
2023/09/10 08:54:22;;;;;;;4.35;3.60;;;27.80;99.90;;;;;;5159385;28;20044;-63
2023/09/10 08:56:57;;;;;;;3.95;3.55;;;28.10;99.90;;;;;;5187529;28;20029;-63
2023/09/10 08:59:30;;;;;;;5.88;4.22;;;28.20;99.90;;;;;;5175838;28;20044;-63
2023/09/10 09:02:02;;;;;;;4.38;3.72;;;28.50;99.90;;;;;;5172921;28;20336;-64
2023/09/10 09:04:39;;;;;;;8.70;3.92;;;28.20;1.00;;;;;;5172795;28;20198;-62
2023/09/10 09:07:16;;;;;;;4.32;3.65;;;28.40;1.00;;;;;;5170202;28;20025;-61
2023/09/10 09:09:53;;;;;;;4.20;3.80;;;28.90;1.00;;;;;;5199498;28;20055;-61
2023/09/10 09:12:26;;;;;;;6.63;4.05;;;28.90;1.00;;;;;;5183169;28;20033;-63
2023/09/10 09:15:01;;;;;;;5.10;3.67;;;29.10;1.00;;;;;;5183513;28;20048;-65
2023/09/10 09:17:38;;;;;;;5.57;4.07;;;29.60;99.90;;;;;;5218536;28;20032;-66
2023/09/10 09:20:14;;;;;;;4.95;3.80;;;29.00;99.90;;;;;;5203706;28;20604;-62
2023/09/10 09:22:57;;;;;;;10.07;4.38;;;28.90;1.00;;;;;;5199751;28;20268;-64
2023/09/10 09:25:33;;;;;;;5.30;4.00;;;29.50;1.00;;;;;;5173090;28;20436;-64
2023/09/10 09:28:05;;;;;;;4.90;3.60;;;29.90;1.00;;;;;;5174610;28;20040;-64
2023/09/10 09:30:36;;;;;;;4.80;3.80;;;30.10;1.00;;;;;;5191571;28;20068;-64
2023/09/10 09:33:07;;;;;;;4.90;3.88;;;30.40;1.00;;;;;;5176938;28;20037;-64
2023/09/10 09:35:39;;;;;;;5.32;4.35;;;29.90;1.00;;;;;;5191742;28;20515;-64
2023/09/10 09:38:14;;;;;;;5.22;4.13;;;29.30;1.00;;;;;;5189499;28;20363;-64
2023/09/10 09:40:46;;;;;;;5.78;4.18;;;29.20;1.00;;;;;;5176034;28;20258;-64
2023/09/10 09:43:17;;;;;;;5.18;4.00;;;29.30;1.00;;;;;;5163154;28;20206;-66
2023/09/10 09:45:53;;;;;;;6.30;4.70;;;29.70;1.00;;;;;;5190036;28;20032;-63
2023/09/10 09:48:24;;;;;;;8.80;4.00;;;30.00;1.00;;;;;;5190796;28;20032;-61
2023/09/10 09:50:59;;;;;;;6.35;4.28;;;30.40;1.00;;;;;;5190736;28;20100;-62
2023/09/10 09:53:35;;;;;;;6.75;4.97;;;30.50;1.00;;;;;;5193082;28;20226;-62
2023/09/10 09:56:07;;;;;;;7.95;4.65;;;30.60;99.90;;;;;;5186525;28;20030;-64
2023/09/10 09:58:38;;;;;;;6.47;4.68;;;31.10;1.00;;;;;;5199932;28;20029;-64
2023/09/10 10:01:12;;;;;;;8.35;4.85;;;31.20;99.90;;;;;;5174940;28;20048;-63
2023/09/10 10:03:46;;;;;;;5.05;4.45;;;31.20;99.90;;;;;;5158445;28;20456;-65
2023/09/10 10:06:20;;;;;;;4.72;4.20;;;31.80;99.90;;;;;;5146455;28;20044;-64
2023/09/10 10:08:51;;;;;;;6.30;4.72;;;32.10;99.90;;;;;;5176382;28;20211;-64
2023/09/10 10:11:30;;;;;;;5.00;4.30;;;32.60;99.90;;;;;;5187131;28;20240;-65
2023/09/10 10:14:05;;;;;;;5.20;4.40;;;33.20;99.90;;;;;;5163137;28;20033;-63
2023/09/10 10:16:37;;;;;;;7.82;4.60;;;33.80;99.90;;;;;;5188381;28;20017;-65
2023/09/10 10:19:09;;;;;;;5.15;4.32;;;33.60;99.90;;;;;;5175990;28;20033;-64
2023/09/10 10:21:40;;;;;;;9.82;4.22;;;33.80;99.90;;;;;;5171801;28;20520;-63
2023/09/10 10:24:15;;;;;;;5.28;4.00;;;34.00;99.90;;;;;;5158857;28;20025;-63
2023/09/10 10:26:47;;;;;;;5.22;4.28;;;34.30;68.70;;;;;;5188653;28;20029;-60
2023/09/10 10:29:22;;;;;;;5.00;4.40;;;34.60;34.10;;;;;;5165035;28;20039;-65
2023/09/10 10:32:12;;;;;;;5.05;4.45;;;35.40;14.50;;;;;;5180652;28;20037;-64
2023/09/10 10:34:56;;;;;;;5.05;4.43;;;35.10;1.00;;;;;;5173309;28;20025;-62
2023/09/10 10:37:40;;;;;;;6.68;4.32;;;35.70;1.00;;;;;;5157117;28;20033;-62
2023/09/10 10:40:13;;;;;;;6.25;4.68;;;36.50;1.00;;;;;;5159536;28;20025;-64
2023/09/10 10:43:16;;;;;;;6.47;4.40;;;36.30;1.00;;;;;;5179364;28;20035;-62
2023/09/10 10:45:50;;;;;;;5.22;4.40;;;34.70;1.00;;;;;;5186994;28;20038;-61
2023/09/10 10:48:25;;;;;;;5.97;4.55;;;35.80;1.00;;;;;;5186271;28;20033;-62
2023/09/10 10:50:58;;;;;;;6.05;4.50;;;37.40;1.00;;;;;;5172897;28;20037;-61
2023/09/10 10:53:29;;;;;;;5.95;4.35;;;37.70;1.00;;;;;;5188965;28;20025;-64
2023/09/10 10:56:03;;;;;;;5.20;4.10;;;38.20;1.00;;;;;;5156491;28;20487;-64
2023/09/10 10:58:39;;;;;;;5.80;4.70;;;38.70;1.00;;;;;;5168182;28;20081;-63
2023/09/10 11:01:14;;;;;;;5.65;4.03;;;39.60;1.00;;;;;;5186627;28;20238;-65
2023/09/10 11:03:47;;;;;;;5.82;4.05;;;40.10;1.00;;;;;;5188886;28;20037;-65
2023/09/10 11:06:18;;;;;;;6.93;4.78;;;40.10;1.00;;;;;;5175331;28;20030;-63
2023/09/10 11:08:49;;;;;;;5.47;4.38;;;40.10;1.00;;;;;;5175554;28;20230;-61
2023/09/10 11:11:38;;;;;;;5.53;4.30;;;40.00;99.90;;;;;;5187831;28;20063;-62
2023/09/10 11:14:10;;;;;;;4.65;3.92;;;40.20;99.90;;;;;;5171261;28;20164;-63
2023/09/10 11:16:44;;;;;;;4.90;4.40;;;40.90;99.90;;;;;;5192596;28;20334;-64
2023/09/10 11:19:42;;;;;;;5.90;4.93;;;41.40;99.90;;;;;;5183753;28;20042;-63
2023/09/10 11:22:15;;;;;;;4.65;4.25;;;41.60;99.90;;;;;;5176251;28;20042;-64
2023/09/10 11:25:01;;;;;;;4.50;4.10;;;41.90;99.90;;;;;;5176876;28;20326;-63
2023/09/10 11:27:34;;;;;;;7.53;4.78;;;41.90;99.90;;;;;;5160228;28;20342;-63
2023/09/10 11:30:19;;;;;;;4.75;4.25;;;41.60;99.90;;;;;;5186176;28;20041;-66
2023/09/10 11:33:30;;;;;;;4.50;4.10;;;41.70;99.90;;;;;;5189745;28;20030;-65
2023/09/10 11:36:03;;;;;;;5.97;4.18;;;41.00;99.90;;;;;;5193974;28;20028;-64
2023/09/10 11:38:34;;;;;;;5.57;4.63;;;40.70;99.90;;;;;;5192359;28;20132;-64
2023/09/10 11:41:05;;;;;;;6.80;4.30;;;39.80;99.90;;;;;;5186462;28;20038;-64
2023/09/10 11:43:40;;;;;;;5.03;4.45;;;40.10;99.90;;;;;;5174836;28;20041;-64
2023/09/10 11:46:11;;;;;;;4.72;4.15;;;40.10;99.90;;;;;;5173940;28;20025;-63
2023/09/10 11:48:45;;;;;;;7.70;5.13;;;40.60;99.90;;;;;;5160256;28;20443;-65
2023/09/10 11:51:18;;;;;;;4.82;4.35;;;41.10;99.90;;;;;;5162730;28;20033;-64
2023/09/10 11:53:50;;;;;;;4.90;4.30;;;40.40;99.90;;;;;;5161509;28;20033;-66
2023/09/10 11:56:26;;;;;;;5.78;4.57;;;40.60;99.90;;;;;;5197614;28;20241;-63
2023/09/10 11:58:57;;;;;;;5.03;4.53;;;39.90;99.90;;;;;;5192346;28;20423;-63
2023/09/10 12:01:28;;;;;;;4.97;4.15;;;40.70;99.90;;;;;;5175960;28;20041;-62
2023/09/10 12:04:03;;;;;;;4.68;4.28;;;41.10;99.90;;;;;;5197640;28;20017;-66
2023/09/10 12:06:36;;;;;;;4.25;3.72;;;42.00;99.90;;;;;;5197033;28;20519;-63
2023/09/10 12:09:07;;;;;;;4.72;4.22;;;42.50;99.90;;;;;;5180569;28;20040;-65
2023/09/10 12:11:40;;;;;;;6.60;4.43;;;43.10;99.90;;;;;;5198755;28;20398;-64
2023/09/10 12:14:14;;;;;;;6.03;4.97;;;42.10;99.90;;;;;;5178741;28;20066;-64
2023/09/10 12:16:46;;;;;;;4.78;4.22;;;42.10;99.90;;;;;;5178050;28;20037;-63
2023/09/10 12:19:22;;;;;;;5.30;4.70;;;42.90;99.90;;;;;;5163362;28;20040;-64
2023/09/10 12:21:53;;;;;;;5.20;4.70;;;43.00;99.90;;;;;;5179824;28;20060;-64
2023/09/10 12:24:27;;;;;;;4.53;4.15;;;43.40;99.90;;;;;;5199504;28;20025;-63
2023/09/10 12:26:58;;;;;;;4.18;3.78;;;43.40;99.90;;;;;;5179100;28;20041;-63
2023/09/10 12:29:32;;;;;;;4.53;4.13;;;43.80;99.90;;;;;;5181257;28;20055;-64
2023/09/10 12:32:06;;;;;;;4.40;4.00;;;43.90;99.90;;;;;;5177760;28;20035;-64
2023/09/10 12:34:38;;;;;;;4.40;3.95;;;43.40;99.90;;;;;;5178571;28;20430;-64
2023/09/10 12:37:15;;;;;;;4.55;4.07;;;43.00;99.90;;;;;;5163886;28;20250;-65
2023/09/10 12:39:46;;;;;;;4.72;4.32;;;43.60;99.90;;;;;;5179394;28;20254;-63
2023/09/10 12:42:17;;;;;;;8.25;4.20;;;43.50;99.90;;;;;;5179781;28;20530;-63
2023/09/10 12:44:49;;;;;;;4.10;3.70;;;43.40;99.90;;;;;;5163087;28;20045;-64
2023/09/10 12:47:22;;;;;;;5.55;4.03;;;42.80;95.50;;;;;;5163577;28;20037;-63
2023/09/10 12:49:54;;;;;;;4.95;3.97;;;43.20;97.30;;;;;;5180873;28;20378;-65
2023/09/10 12:52:25;;;;;;;4.80;4.40;;;43.50;99.90;;;;;;5179734;28;20036;-66
2023/09/10 12:54:57;;;;;;;4.72;4.00;;;43.10;96.50;;;;;;5197923;28;20536;-65
2023/09/10 12:57:32;;;;;;;5.20;4.00;;;43.10;92.00;;;;;;5177971;28;20033;-65
2023/09/10 13:00:04;;;;;;;5.72;4.40;;;43.00;48.30;;;;;;5178558;28;20242;-65
2023/09/10 13:02:35;;;;;;;5.35;3.90;;;42.30;52.30;;;;;;5177374;28;20041;-66
2023/09/10 13:05:07;;;;;;;3.92;3.53;;;41.10;41.80;;;;;;5196701;28;20345;-63
2023/09/10 13:07:38;;;;;;;4.85;3.85;;;39.80;35.00;;;;;;5180148;28;20483;-64
2023/09/10 13:10:10;;;;;;;6.40;3.78;;;40.70;32.00;;;;;;5180546;28;20044;-62
2023/09/10 13:12:44;;;;;;;4.32;3.92;;;40.20;23.30;;;;;;5180394;28;20032;-64
2023/09/10 13:15:15;;;;;;;4.22;3.80;;;41.00;34.10;;;;;;5178720;28;20034;-64
2023/09/10 13:17:52;;;;;;;4.30;3.90;;;42.00;42.10;;;;;;5179609;28;20582;-63
2023/09/10 13:20:26;;;;;;;4.05;3.60;;;43.30;55.10;;;;;;5163176;28;20033;-64
2023/09/10 13:22:57;;;;;;;4.25;3.85;;;44.00;67.60;;;;;;5178934;28;20029;-64
2023/09/10 13:25:34;;;;;;;4.25;3.85;;;43.90;68.70;;;;;;5162900;28;20045;-66